Time;durP1;ratioP1;P1;durP2;ratioP2;P2;SDS_P1;SDS_P2;PMS_P1;PMS_P2;Temp;Humidity;BMP_temperature;BMP_pressure;BME280_temperature;BME280_humidity;BME280_pressure;Samples;Min_cycle;Max_cycle;Signal;HPM_P1;HPM_P2
2022/06/18 00:04:09;;;;;;;3.17;1.23;;;21.10;99.90;;;;;;12490011;28;20572;-37
2022/06/18 00:10:16;;;;;;;2.42;1.17;;;21.10;99.90;;;;;;12488479;28;20041;-34
2022/06/18 00:16:21;;;;;;;2.42;1.08;;;21.20;99.90;;;;;;12489029;28;20561;-39
2022/06/18 00:22:23;;;;;;;2.10;1.13;;;21.20;99.90;;;;;;12490674;28;20535;-35
2022/06/18 00:28:28;;;;;;;3.63;1.15;;;21.20;99.90;;;;;;12487541;28;20080;-34
2022/06/18 00:34:30;;;;;;;1.80;1.05;;;21.20;99.90;;;;;;12489992;28;20417;-39
2022/06/18 00:40:40;;;;;;;4.90;1.10;;;21.20;99.90;;;;;;12485774;28;20077;-38
2022/06/18 00:47:09;;;;;;;2.30;1.10;;;21.20;99.90;;;;;;12487143;28;20114;-35
2022/06/18 00:53:18;;;;;;;2.72;1.25;;;21.30;99.90;;;;;;12488355;28;20103;-35
2022/06/18 00:59:26;;;;;;;1.80;0.90;;;21.30;99.90;;;;;;12489603;28;20173;-35
2022/06/18 01:05:36;;;;;;;2.88;1.08;;;21.30;99.90;;;;;;12485090;28;20049;-34
2022/06/18 01:11:40;;;;;;;2.88;1.02;;;21.30;99.90;;;;;;12488230;28;20544;-38
2022/06/18 01:17:42;;;;;;;1.30;0.90;;;21.30;99.90;;;;;;12486319;28;20136;-34
2022/06/18 01:24:03;;;;;;;4.30;1.23;;;21.20;99.90;;;;;;12477672;28;20049;-37
2022/06/18 01:30:14;;;;;;;4.18;1.30;;;21.20;99.90;;;;;;12484020;28;20046;-37
2022/06/18 01:36:15;;;;;;;5.50;1.20;;;21.20;99.90;;;;;;12459048;28;20061;-37
2022/06/18 01:42:26;;;;;;;5.80;1.20;;;21.20;99.90;;;;;;12481710;28;20045;-38
2022/06/18 01:48:35;;;;;;;2.80;1.10;;;21.10;99.90;;;;;;12485721;28;20091;-37
2022/06/18 01:54:47;;;;;;;2.05;1.00;;;21.10;99.90;;;;;;12478285;28;20447;-38
2022/06/18 02:00:53;;;;;;;2.05;1.05;;;21.00;99.90;;;;;;12484015;28;20046;-37
2022/06/18 02:06:55;;;;;;;1.95;1.00;;;20.90;99.90;;;;;;12478273;28;20122;-39
2022/06/18 02:13:00;;;;;;;4.32;1.30;;;20.80;99.90;;;;;;12483373;28;20163;-34
2022/06/18 02:19:05;;;;;;;3.20;1.00;;;20.70;99.90;;;;;;12478855;28;20615;-38
2022/06/18 02:25:07;;;;;;;2.17;1.30;;;20.80;99.90;;;;;;12481815;28;20878;-35
2022/06/18 02:31:19;;;;;;;4.63;1.13;;;21.00;99.90;;;;;;12483744;28;20183;-38
2022/06/18 02:37:27;;;;;;;2.58;1.20;;;20.90;99.90;;;;;;12474923;28;20179;-38
2022/06/18 02:43:29;;;;;;;4.82;1.20;;;20.90;99.90;;;;;;12481344;28;20132;-35
2022/06/18 02:49:37;;;;;;;2.10;1.30;;;20.90;99.90;;;;;;12482761;28;20132;-35
2022/06/18 02:55:41;;;;;;;3.67;1.27;;;20.70;99.90;;;;;;12474423;28;20489;-35
2022/06/18 03:01:43;;;;;;;2.50;1.38;;;20.80;99.90;;;;;;12479088;28;20052;-35
2022/06/18 03:07:44;;;;;;;3.47;1.10;;;20.80;99.90;;;;;;12482320;28;20102;-35
2022/06/18 03:13:46;;;;;;;3.35;1.38;;;20.80;99.90;;;;;;12484359;28;20045;-38
2022/06/18 03:19:55;;;;;;;2.53;1.15;;;20.80;99.90;;;;;;12490666;28;20053;-35
2022/06/18 03:25:58;;;;;;;2.53;1.30;;;20.80;99.90;;;;;;12483651;28;20095;-38
2022/06/18 03:32:04;;;;;;;3.20;1.10;;;20.70;99.90;;;;;;12491858;28;20045;-38
2022/06/18 03:38:06;;;;;;;3.70;1.20;;;20.70;99.90;;;;;;12491504;28;20505;-34
2022/06/18 03:44:07;;;;;;;2.97;1.30;;;20.80;99.90;;;;;;12485685;28;20499;-36
2022/06/18 03:50:15;;;;;;;2.10;1.20;;;20.90;99.90;;;;;;12486755;28;20168;-39
2022/06/18 03:56:21;;;;;;;2.60;0.98;;;20.80;99.90;;;;;;12490132;28;20098;-38
2022/06/18 04:02:23;;;;;;;4.15;1.20;;;20.80;99.90;;;;;;12487277;28;20126;-34
2022/06/18 04:08:25;;;;;;;1.77;1.20;;;20.80;99.90;;;;;;12481306;28;20049;-38
2022/06/18 04:14:26;;;;;;;4.45;1.50;;;20.80;99.90;;;;;;12485574;28;20079;-35
2022/06/18 04:20:33;;;;;;;2.92;1.40;;;20.80;99.90;;;;;;12490345;28;20141;-38
2022/06/18 04:26:35;;;;;;;6.60;1.45;;;20.80;99.90;;;;;;12479623;28;20085;-34
2022/06/18 04:32:37;;;;;;;2.90;1.70;;;20.90;99.90;;;;;;12490958;28;20527;-35
2022/06/18 04:38:39;;;;;;;3.25;1.50;;;20.90;99.90;;;;;;12485917;28;20522;-40
2022/06/18 04:44:41;;;;;;;3.03;1.70;;;21.00;99.90;;;;;;12486507;28;20236;-38
2022/06/18 04:50:43;;;;;;;6.43;1.73;;;21.00;99.90;;;;;;12479831;28;20049;-38
2022/06/18 04:56:44;;;;;;;5.50;1.98;;;20.90;99.90;;;;;;12487143;28;20057;-34
2022/06/18 05:02:47;;;;;;;3.28;1.77;;;21.00;99.90;;;;;;12480999;28;20049;-38
2022/06/18 05:08:48;;;;;;;3.35;1.50;;;21.20;99.90;;;;;;12484212;28;20103;-35
2022/06/18 05:14:50;;;;;;;4.13;1.58;;;21.20;99.90;;;;;;12475104;28;20136;-35
2022/06/18 05:20:53;;;;;;;7.65;2.08;;;21.40;99.90;;;;;;12484274;28;20459;-37
2022/06/18 05:26:58;;;;;;;3.78;1.70;;;21.50;99.90;;;;;;12471141;28;20090;-34
2022/06/18 05:32:59;;;;;;;5.95;1.70;;;21.70;99.90;;;;;;12484753;28;20075;-39
2022/06/18 05:39:02;;;;;;;5.45;2.03;;;21.50;99.90;;;;;;12485891;28;20413;-38
2022/06/18 05:45:04;;;;;;;6.50;2.00;;;21.70;99.90;;;;;;12479060;28;20562;-35
2022/06/18 05:51:06;;;;;;;3.17;1.90;;;21.80;99.90;;;;;;12484712;28;20069;-34
2022/06/18 05:57:09;;;;;;;5.70;2.33;;;21.90;99.90;;;;;;12482601;28;20470;-37
2022/06/18 06:03:12;;;;;;;6.23;2.37;;;22.00;99.90;;;;;;12482478;28;20057;-36
2022/06/18 06:11:28;;;;;;;8.63;2.30;;;22.10;99.90;;;;;;12481758;28;20108;-35
2022/06/18 06:15:38;;;;;;;8.73;2.45;;;22.30;99.90;;;;;;12477065;28;20071;-35
2022/06/18 06:21:39;;;;;;;3.42;1.92;;;22.30;99.90;;;;;;12480273;28;20480;-35
2022/06/18 06:27:41;;;;;;;4.38;2.30;;;22.50;99.90;;;;;;12484733;28;20041;-38
2022/06/18 06:33:43;;;;;;;7.03;2.53;;;22.60;99.90;;;;;;12500515;22;20132;-89
2022/06/18 06:39:45;;;;;;;4.78;2.50;;;22.70;99.90;;;;;;12469455;28;20053;-88
2022/06/18 06:45:47;;;;;;;7.60;2.50;;;22.70;99.90;;;;;;12474054;28;20045;-90
2022/06/18 06:51:50;;;;;;;9.75;2.60;;;22.80;99.90;;;;;;12477820;28;20144;-87
2022/06/18 06:57:52;;;;;;;4.60;2.40;;;22.70;99.90;;;;;;12481859;28;20049;-88
2022/06/18 07:03:55;;;;;;;7.85;2.50;;;22.80;99.90;;;;;;12463052;28;20091;-86
2022/06/18 07:09:56;;;;;;;4.00;2.37;;;23.00;99.90;;;;;;12490988;28;20101;-85
2022/06/18 07:15:59;;;;;;;7.75;2.72;;;23.00;99.90;;;;;;12479052;28;20045;-86
2022/06/18 07:22:02;;;;;;;7.38;2.75;;;23.10;99.90;;;;;;12488187;28;20052;-88
2022/06/18 07:28:04;;;;;;;9.07;2.63;;;23.10;99.90;;;;;;12482884;28;20045;-87
2022/06/18 07:34:06;;;;;;;7.43;2.97;;;23.30;99.90;;;;;;12498852;28;20519;-89
2022/06/18 07:40:09;;;;;;;7.07;3.00;;;23.30;99.90;;;;;;12476237;28;20080;-87
2022/06/18 07:46:11;;;;;;;6.57;2.50;;;23.40;99.90;;;;;;12463316;28;20037;-87
2022/06/18 07:52:16;;;;;;;7.53;3.60;;;23.30;99.90;;;;;;12487975;28;20049;-85
2022/06/18 07:58:18;;;;;;;6.28;3.10;;;23.40;99.90;;;;;;12503923;28;20555;-86
2022/06/18 08:04:20;;;;;;;5.82;2.70;;;23.40;99.90;;;;;;12484099;28;20037;-87
2022/06/18 08:10:22;;;;;;;9.60;3.45;;;23.70;99.90;;;;;;12498613;28;20134;-86
2022/06/18 08:16:24;;;;;;;6.85;3.20;;;24.00;99.90;;;;;;12484158;28;20133;-86
2022/06/18 08:22:27;;;;;;;7.57;3.13;;;24.20;99.90;;;;;;12488527;28;20052;-88
2022/06/18 08:28:30;;;;;;;13.70;3.10;;;24.20;99.90;;;;;;12499517;28;20060;-87
2022/06/18 08:34:32;;;;;;;5.80;2.72;;;24.50;99.90;;;;;;12498073;28;20052;-87
2022/06/18 08:40:51;;;;;;;9.02;3.63;;;24.50;99.90;;;;;;12486193;28;20077;-86
2022/06/18 08:47:02;;;;;;;7.32;3.42;;;24.70;99.90;;;;;;12493452;28;20555;-87
2022/06/18 08:53:18;;;;;;;7.72;3.55;;;24.80;99.90;;;;;;12489918;28;20136;-85
2022/06/18 08:59:43;;;;;;;9.40;3.50;;;24.80;99.90;;;;;;12486326;28;20077;-87
2022/06/18 09:06:08;;;;;;;8.65;3.05;;;25.10;99.90;;;;;;12491067;28;20071;-86
2022/06/18 09:12:14;;;;;;;8.18;3.08;;;25.30;99.90;;;;;;12467479;28;20037;-86
2022/06/18 09:18:26;;;;;;;7.68;2.85;;;25.40;99.90;;;;;;12472779;28;20060;-87
2022/06/18 09:24:44;;;;;;;6.28;3.20;;;25.70;99.90;;;;;;12485963;28;20049;-85
2022/06/18 09:30:51;;;;;;;9.27;2.92;;;25.60;99.90;;;;;;12468317;28;20094;-87
2022/06/18 09:36:57;;;;;;;9.35;3.38;;;25.60;99.90;;;;;;12470268;28;20087;-87
2022/06/18 09:43:33;;;;;;;8.65;3.38;;;25.90;99.90;;;;;;12498626;28;20041;-85
2022/06/18 09:49:36;;;;;;;12.65;3.17;;;26.10;99.90;;;;;;12470572;28;20113;-84
2022/06/18 09:55:43;;;;;;;9.25;3.03;;;26.30;99.90;;;;;;12453511;28;20540;-86
2022/06/18 10:01:49;;;;;;;12.02;2.95;;;26.30;99.90;;;;;;12466556;28;20127;-86
2022/06/18 10:07:53;;;;;;;11.32;3.08;;;26.30;99.90;;;;;;12488519;28;20054;-90
2022/06/18 10:14:11;;;;;;;6.07;2.58;;;26.40;99.90;;;;;;12455549;28;20218;-86
2022/06/18 10:20:34;;;;;;;11.65;3.22;;;26.60;99.90;;;;;;12470702;28;20132;-88
2022/06/18 10:27:06;;;;;;;10.52;3.17;;;26.80;99.90;;;;;;12493699;28;20045;-87
2022/06/18 10:33:34;;;;;;;7.03;3.15;;;27.10;99.90;;;;;;12492046;28;20201;-87
2022/06/18 10:39:45;;;;;;;13.80;3.55;;;27.00;99.90;;;;;;12490265;28;20452;-84
2022/06/18 10:45:52;;;;;;;11.27;3.58;;;27.20;99.90;;;;;;12496937;28;20299;-85
2022/06/18 10:51:54;;;;;;;10.45;4.32;;;27.30;99.90;;;;;;12467209;28;20073;-86
2022/06/18 10:58:07;;;;;;;9.33;3.03;;;27.40;99.90;;;;;;12469542;28;20144;-85
2022/06/18 11:04:28;;;;;;;8.05;3.15;;;27.60;99.90;;;;;;12478354;28;20128;-87
2022/06/18 11:10:36;;;;;;;11.23;3.28;;;27.70;99.90;;;;;;12469379;28;20545;-86
2022/06/18 11:16:43;;;;;;;9.73;3.40;;;27.60;99.90;;;;;;12474112;28;20091;-86
2022/06/18 11:22:51;;;;;;;11.88;3.47;;;27.70;99.90;;;;;;12495334;28;20049;-86
2022/06/18 11:29:00;;;;;;;13.02;3.30;;;28.10;99.90;;;;;;12470526;28;20045;-88
2022/06/18 11:35:30;;;;;;;10.30;3.17;;;28.10;99.90;;;;;;12473640;28;20068;-86
2022/06/18 11:41:35;;;;;;;7.38;3.10;;;28.10;99.90;;;;;;12487192;28;20057;-87
2022/06/18 11:47:43;;;;;;;8.45;3.35;;;28.20;99.90;;;;;;12479143;28;20179;-87
2022/06/18 11:54:12;;;;;;;10.13;2.90;;;28.40;99.90;;;;;;12492372;28;20034;-87
2022/06/18 12:00:25;;;;;;;12.57;3.42;;;28.60;99.90;;;;;;12472276;28;20512;-87
2022/06/18 12:06:42;;;;;;;12.65;3.50;;;28.90;99.90;;;;;;12473926;28;20160;-88
2022/06/18 12:13:04;;;;;;;11.40;3.45;;;29.10;99.90;;;;;;12488913;28;20054;-87
2022/06/18 12:19:24;;;;;;;11.10;2.80;;;29.10;99.90;;;;;;12484356;28;20102;-87
2022/06/18 12:25:38;;;;;;;8.73;3.40;;;29.10;99.90;;;;;;12469727;28;20064;-88
2022/06/18 12:32:17;;;;;;;14.25;2.95;;;29.10;99.90;;;;;;12477026;28;20056;-87
2022/06/18 12:38:42;;;;;;;6.78;3.15;;;29.30;99.90;;;;;;12476699;28;20136;-87
2022/06/18 12:45:02;;;;;;;10.65;3.45;;;29.40;99.90;;;;;;12466298;28;20045;-87
2022/06/18 12:51:07;;;;;;;10.05;3.38;;;29.40;99.90;;;;;;12466003;28;20096;-86
2022/06/18 12:57:42;;;;;;;11.40;3.40;;;29.30;99.90;;;;;;12476234;28;20219;-85
2022/06/18 13:04:10;;;;;;;6.85;3.03;;;29.20;99.90;;;;;;12478158;28;20100;-92
2022/06/18 13:10:28;;;;;;;12.75;2.85;;;29.30;99.90;;;;;;12462253;28;20102;-88
2022/06/18 13:16:36;;;;;;;12.68;3.28;;;29.30;99.90;;;;;;12477826;28;20100;-88
2022/06/18 13:22:39;;;;;;;4.95;2.55;;;29.30;99.90;;;;;;12466863;28;20068;-87
2022/06/18 13:29:23;;;;;;;11.98;3.53;;;29.30;99.90;;;;;;12467761;28;20327;-88
2022/06/18 13:35:48;;;;;;;18.80;3.70;;;29.30;99.90;;;;;;12477379;28;20053;-86
2022/06/18 13:41:59;;;;;;;9.55;3.15;;;29.30;99.90;;;;;;12479127;28;20041;-88
2022/06/18 13:48:19;;;;;;;10.07;3.00;;;29.40;99.90;;;;;;12474085;28;20038;-88
2022/06/18 13:54:21;;;;;;;9.45;3.50;;;29.40;99.90;;;;;;12484020;28;20057;-87
2022/06/18 14:00:28;;;;;;;7.85;3.03;;;29.50;99.90;;;;;;12489652;28;20499;-87
2022/06/18 14:06:30;;;;;;;10.90;3.22;;;29.60;99.90;;;;;;12473917;28;20493;-88
2022/06/18 14:12:35;;;;;;;10.52;3.03;;;29.60;99.90;;;;;;12459013;28;20547;-87
2022/06/18 14:18:37;;;;;;;6.50;2.67;;;29.50;99.90;;;;;;12468393;28;20129;-90
2022/06/18 14:24:54;;;;;;;12.57;3.10;;;29.60;99.90;;;;;;12480930;28;20073;-90
2022/06/18 14:31:26;;;;;;;11.15;3.72;;;29.50;99.90;;;;;;12461533;28;20080;-89
2022/06/18 14:37:31;;;;;;;14.52;3.22;;;29.50;99.90;;;;;;12469333;28;20045;-89
2022/06/18 14:44:15;;;;;;;12.05;3.63;;;29.60;99.90;;;;;;12490177;28;20183;-87
2022/06/18 14:50:59;;;;;;;8.07;3.17;;;29.60;99.90;;;;;;12489760;28;20045;-87
2022/06/18 14:57:19;;;;;;;10.38;3.22;;;29.60;99.90;;;;;;12493899;28;20045;-87
2022/06/18 15:03:35;;;;;;;8.73;3.28;;;29.60;99.90;;;;;;12493949;28;20128;-89
2022/06/18 15:09:39;;;;;;;10.95;3.28;;;29.60;99.90;;;;;;12477062;28;20045;-87
2022/06/18 15:16:15;;;;;;;10.55;3.50;;;29.70;99.90;;;;;;12463112;28;20132;-86
2022/06/18 15:22:16;;;;;;;;;;;29.50;99.90;;;;;;12486231;28;20514;-87
2022/06/18 15:28:20;;;;;;;11.43;3.83;;;29.50;99.90;;;;;;12470440;28;20262;-87
2022/06/18 15:34:28;;;;;;;11.90;3.47;;;29.40;99.90;;;;;;12482638;28;20235;-87
2022/06/18 15:40:42;;;;;;;10.05;3.78;;;29.30;99.90;;;;;;12481282;28;20091;-87
2022/06/18 15:46:50;;;;;;;13.32;3.83;;;29.10;99.90;;;;;;12473848;28;20041;-87
2022/06/18 15:52:53;;;;;;;17.88;3.10;;;29.00;99.90;;;;;;12467564;28;20049;-86
2022/06/18 15:58:56;;;;;;;15.50;5.10;;;29.10;99.90;;;;;;12490496;28;20095;-87
2022/06/18 16:04:59;;;;;;;12.48;4.05;;;29.00;99.90;;;;;;12484643;28;20094;-86
2022/06/18 16:11:28;;;;;;;12.18;4.30;;;28.80;99.90;;;;;;12483645;28;20120;-86
2022/06/18 16:17:33;;;;;;;10.27;3.83;;;28.60;99.90;;;;;;12459093;28;20049;-86
2022/06/18 16:23:40;;;;;;;12.00;3.72;;;28.40;99.90;;;;;;12485796;28;20103;-86
2022/06/18 16:29:42;;;;;;;12.70;4.03;;;28.10;99.90;;;;;;12490702;28;20103;-87
2022/06/18 16:36:04;;;;;;;;;;;27.90;99.90;;;;;;12472881;28;20116;-86
2022/06/18 16:42:32;;;;;;;10.98;4.00;;;27.80;99.90;;;;;;12488122;28;19921;-86
2022/06/18 16:48:37;;;;;;;8.93;3.50;;;27.70;99.90;;;;;;12485738;28;20088;-87
2022/06/18 16:54:44;;;;;;;12.38;3.97;;;27.50;99.90;;;;;;12477012;28;20060;-86
2022/06/18 17:00:49;;;;;;;20.00;4.30;;;27.30;99.90;;;;;;12464994;28;20312;-87
2022/06/18 17:06:55;;;;;;;9.98;3.72;;;27.20;99.90;;;;;;12467776;28;20050;-87
2022/06/18 17:12:57;;;;;;;13.23;4.13;;;27.20;99.90;;;;;;12468418;28;20545;-87
2022/06/18 17:18:59;;;;;;;11.48;3.45;;;27.10;99.90;;;;;;12468131;28;20057;-87
2022/06/18 17:31:28;;;;;;;8.98;3.25;;;27.10;99.90;;;;;;12480877;28;20057;-87
2022/06/18 17:37:30;;;;;;;7.22;3.15;;;27.10;99.90;;;;;;12482521;28;20417;-86
2022/06/18 17:43:36;;;;;;;9.00;3.70;;;27.20;99.90;;;;;;12485536;28;20041;-87
2022/06/18 17:49:38;;;;;;;13.20;3.72;;;27.20;99.90;;;;;;12470183;28;20068;-88
2022/06/18 17:55:41;;;;;;;6.03;3.03;;;27.00;99.90;;;;;;12485027;28;20034;-87
2022/06/18 18:01:55;;;;;;;10.85;3.20;;;26.70;99.90;;;;;;12467391;28;20077;-87
2022/06/18 18:07:57;;;;;;;9.13;3.33;;;26.50;99.90;;;;;;12461337;28;20099;-88
2022/06/18 18:13:59;;;;;;;6.70;2.80;;;25.90;99.90;;;;;;12456957;28;20506;-88
2022/06/18 18:20:01;;;;;;;7.47;3.30;;;25.80;99.90;;;;;;12475499;28;20140;-87
2022/06/18 18:26:04;;;;;;;10.02;2.88;;;25.50;99.90;;;;;;12486080;28;20077;-88
2022/06/18 18:32:08;;;;;;;7.10;2.75;;;25.30;99.90;;;;;;12464518;28;20089;-87
2022/06/18 18:38:10;;;;;;;7.45;2.80;;;25.20;99.90;;;;;;12495490;28;20045;-88
2022/06/18 18:44:18;;;;;;;8.43;3.15;;;24.80;99.90;;;;;;12463622;28;20075;-87
2022/06/18 18:50:20;;;;;;;8.57;3.27;;;24.80;99.90;;;;;;12491995;28;20473;-87
2022/06/18 18:56:23;;;;;;;8.18;2.85;;;24.60;99.90;;;;;;12468217;28;20091;-86
2022/06/18 19:02:25;;;;;;;11.47;3.63;;;24.50;99.90;;;;;;12486188;28;20124;-87
2022/06/18 19:08:27;;;;;;;7.10;3.00;;;24.30;99.90;;;;;;12469318;28;20446;-87
2022/06/18 19:14:30;;;;;;;10.63;2.73;;;24.10;99.90;;;;;;12488778;28;20087;-87
2022/06/18 19:20:32;;;;;;;9.18;3.00;;;24.20;99.90;;;;;;12483912;28;20057;-88
2022/06/18 19:26:34;;;;;;;12.57;2.95;;;24.00;99.90;;;;;;12473318;28;20081;-87
2022/06/18 19:32:36;;;;;;;5.78;2.40;;;24.10;99.90;;;;;;12485622;28;20180;-88
2022/06/18 19:38:38;;;;;;;8.75;2.70;;;23.80;99.90;;;;;;12501361;28;20191;-87
2022/06/18 19:44:40;;;;;;;6.30;2.60;;;23.90;99.90;;;;;;12477197;28;20128;-87
2022/06/18 19:50:44;;;;;;;7.53;2.67;;;23.90;99.90;;;;;;12473967;28;20049;-87
2022/06/18 19:56:45;;;;;;;8.60;2.90;;;23.70;99.90;;;;;;12488894;28;20049;-87
2022/06/18 20:02:48;;;;;;;12.45;2.85;;;23.20;99.90;;;;;;12468865;28;20046;-87
2022/06/18 20:08:51;;;;;;;8.80;2.33;;;23.10;99.90;;;;;;12459399;28;20049;-87
2022/06/18 20:14:56;;;;;;;7.30;2.25;;;23.10;99.90;;;;;;12484661;28;20076;-87
2022/06/18 20:20:57;;;;;;;9.32;2.30;;;23.20;99.90;;;;;;12472341;28;20450;-87
2022/06/18 20:26:59;;;;;;;5.97;2.13;;;23.00;99.90;;;;;;12457730;28;20479;-87
2022/06/18 20:33:02;;;;;;;6.43;2.40;;;22.70;99.90;;;;;;12478813;28;20569;-86
2022/06/18 20:39:04;;;;;;;7.73;2.23;;;22.70;99.90;;;;;;12458640;28;20413;-87
2022/06/18 20:45:06;;;;;;;8.13;1.83;;;22.70;99.90;;;;;;12508558;28;20287;-87
2022/06/18 20:51:11;;;;;;;10.07;1.80;;;22.60;99.90;;;;;;12478616;28;20045;-87
2022/06/18 20:57:16;;;;;;;4.60;1.90;;;22.60;99.90;;;;;;12476030;28;20066;-87
2022/06/18 21:03:19;;;;;;;6.03;1.50;;;22.40;99.90;;;;;;12461074;28;20489;-87
2022/06/18 21:09:22;;;;;;;3.25;1.67;;;22.30;99.90;;;;;;12480571;28;20046;-86
2022/06/18 21:15:23;;;;;;;5.45;1.70;;;22.20;99.90;;;;;;12459624;28;20046;-87
2022/06/18 21:21:26;;;;;;;5.47;1.92;;;22.20;99.90;;;;;;12455648;28;20060;-87
2022/06/18 21:27:28;;;;;;;7.00;2.17;;;22.20;99.90;;;;;;12479069;28;20054;-87
2022/06/18 21:39:53;;;;;;;8.05;2.05;;;21.80;99.90;;;;;;12473435;28;20064;-87
2022/06/18 21:45:57;;;;;;;5.38;1.60;;;21.80;99.90;;;;;;12456718;28;20084;-87
2022/06/18 21:52:00;;;;;;;3.65;1.70;;;21.70;99.90;;;;;;12472149;28;20049;-87
2022/06/18 21:58:06;;;;;;;4.50;1.67;;;21.50;99.90;;;;;;12454936;28;20076;-87
2022/06/18 22:04:08;;;;;;;5.30;1.60;;;21.50;99.90;;;;;;12455125;28;20041;-87
2022/06/18 22:10:11;;;;;;;4.20;1.35;;;21.50;99.90;;;;;;12458895;28;20175;-87
2022/06/18 22:22:33;;;;;;;6.43;1.50;;;21.30;99.90;;;;;;12473560;28;20326;-86
2022/06/18 22:28:37;;;;;;;4.10;1.50;;;21.40;99.90;;;;;;12478358;28;20056;-87
2022/06/18 22:34:39;;;;;;;4.20;1.63;;;21.00;99.90;;;;;;12453176;28;20041;-87
2022/06/18 22:40:43;;;;;;;4.88;1.50;;;20.90;99.90;;;;;;12458450;28;20059;-87
2022/06/18 22:46:46;;;;;;;4.85;1.27;;;20.60;99.90;;;;;;12458169;28;20045;-87
2022/06/18 22:53:25;;;;;;;3.28;1.50;;;20.50;99.90;;;;;;12477658;28;20485;-87
2022/06/18 22:59:17;;;;;;;4.85;1.48;;;20.60;99.90;;;;;;12474884;28;20076;-86
2022/06/18 23:05:18;;;;;;;2.70;1.30;;;20.70;99.90;;;;;;12471855;28;20054;-86
2022/06/18 23:17:42;;;;;;;3.83;1.65;;;20.60;99.90;;;;;;12480733;28;20053;-86
2022/06/18 23:23:44;;;;;;;3.63;1.40;;;20.60;99.90;;;;;;12456266;28;20048;-86
2022/06/18 23:29:46;;;;;;;4.75;1.48;;;20.50;99.90;;;;;;12459929;28;20114;-87
2022/06/18 23:35:48;;;;;;;6.88;1.50;;;20.50;99.90;;;;;;12478025;28;20402;-86
2022/06/18 23:41:52;;;;;;;4.63;1.70;;;20.30;99.90;;;;;;12484303;28;20049;-86
2022/06/18 23:47:56;;;;;;;5.22;1.70;;;20.40;99.90;;;;;;12468818;28;20030;-86
2022/06/18 23:53:58;;;;;;;7.20;1.73;;;20.30;99.90;;;;;;12460933;28;20042;-86
